Time;durP1;ratioP1;P1;durP2;ratioP2;P2;SDS_P1;SDS_P2;PMS_P1;PMS_P2;Temp;Humidity;BMP_temperature;BMP_pressure;BME280_temperature;BME280_humidity;BME280_pressure;Samples;Min_cycle;Max_cycle;Signal;HPM_P1;HPM_P2
2023/12/07 00:02:17;;;;;;;9.00;8.10;;;;;;;;;;5097208;28;20058;-76
2023/12/07 00:04:43;;;;;;;9.35;8.55;;;;;;;;;;5097585;28;20094;-77
2023/12/07 00:07:09;;;;;;;9.18;8.27;;;;;;;;;;5096912;28;20134;-77
2023/12/07 00:09:35;;;;;;;9.80;8.30;;;;;;;;;;5096897;28;20046;-77
2023/12/07 00:12:01;;;;;;;10.45;9.18;;;;;;;;;;5096947;28;20055;-77
2023/12/07 00:14:27;;;;;;;9.98;8.90;;;;;;;;;;5096777;28;20108;-77
2023/12/07 00:16:54;;;;;;;11.27;9.00;;;;;;;;;;5096630;28;20051;-77
2023/12/07 00:19:20;;;;;;;10.82;8.65;;;;;;;;;;5096262;28;20044;-77
2023/12/07 00:21:46;;;;;;;13.18;9.68;;;;;;;;;;5096182;28;20047;-77
2023/12/07 00:24:12;;;;;;;9.82;8.93;;;;;;;;;;5096309;28;20047;-77
2023/12/07 00:26:38;;;;;;;11.65;9.70;;;;;;;;;;5096197;28;20078;-77
2023/12/07 00:29:04;;;;;;;11.18;10.05;;;;;;;;;;5096876;28;20044;-76
2023/12/07 00:31:30;;;;;;;13.32;8.95;;;;;;;;;;5079703;28;20108;-77
2023/12/07 00:33:56;;;;;;;9.95;8.98;;;;;;;;;;5113945;28;20484;-76
2023/12/07 00:36:22;;;;;;;10.02;9.07;;;;;;;;;;5096422;28;20043;-77
2023/12/07 00:38:48;;;;;;;12.20;9.63;;;;;;;;;;5096255;28;20058;-77
2023/12/07 00:41:14;;;;;;;11.45;9.80;;;;;;;;;;5095853;28;20043;-76
2023/12/07 00:43:40;;;;;;;13.02;9.90;;;;;;;;;;5079096;28;20507;-77
2023/12/07 00:46:09;;;;;;;15.45;10.52;;;;;;;;;;5096296;28;20044;-76
2023/12/07 00:48:35;;;;;;;9.93;8.93;;;;;;;;;;5079427;28;20055;-77
2023/12/07 00:51:02;;;;;;;11.23;9.93;;;;;;;;;;5079653;28;20086;-77
2023/12/07 00:53:28;;;;;;;12.15;10.60;;;;;;;;;;5095807;28;20059;-77
2023/12/07 00:55:54;;;;;;;11.05;9.45;;;;;;;;;;5113573;28;20161;-77
2023/12/07 00:58:20;;;;;;;11.07;9.70;;;;;;;;;;5114105;28;20056;-77
2023/12/07 01:00:46;;;;;;;10.95;9.85;;;;;;;;;;5096099;28;20043;-76
2023/12/07 01:03:12;;;;;;;11.10;9.98;;;;;;;;;;5078941;28;20079;-77
2023/12/07 01:05:38;;;;;;;10.95;9.80;;;;;;;;;;5113589;28;20047;-77
2023/12/07 01:08:05;;;;;;;12.43;10.23;;;;;;;;;;5095967;28;20036;-76
2023/12/07 01:10:32;;;;;;;13.35;10.90;;;;;;;;;;5095766;28;20062;-77
2023/12/07 01:12:58;;;;;;;12.18;10.98;;;;;;;;;;5096147;28;20051;-76
2023/12/07 01:15:24;;;;;;;12.13;10.63;;;;;;;;;;5095533;28;20509;-77
2023/12/07 01:17:50;;;;;;;11.60;10.52;;;;;;;;;;5113859;28;20046;-77
2023/12/07 01:20:17;;;;;;;12.55;11.20;;;;;;;;;;5095936;28;20047;-76
2023/12/07 01:22:43;;;;;;;16.92;10.90;;;;;;;;;;5095609;28;20093;-76
2023/12/07 01:25:09;;;;;;;11.70;10.18;;;;;;;;;;5095521;28;20383;-77
2023/12/07 01:27:35;;;;;;;12.63;11.35;;;;;;;;;;5113433;28;20498;-77
2023/12/07 01:30:02;;;;;;;14.02;11.27;;;;;;;;;;5096086;28;20065;-77
2023/12/07 01:32:28;;;;;;;13.75;11.77;;;;;;;;;;5098346;28;20502;-76
2023/12/07 01:34:54;;;;;;;14.40;11.70;;;;;;;;;;5099394;28;20484;-76
2023/12/07 01:37:21;;;;;;;12.93;11.63;;;;;;;;;;5117481;28;20506;-76
2023/12/07 01:39:47;;;;;;;15.57;12.38;;;;;;;;;;5117748;28;20043;-76
2023/12/07 01:42:13;;;;;;;13.57;11.73;;;;;;;;;;5099417;28;20503;-76
2023/12/07 01:44:39;;;;;;;13.50;12.10;;;;;;;;;;5117539;28;20071;-76
2023/12/07 01:47:07;;;;;;;14.13;11.98;;;;;;;;;;5099868;28;20055;-76
2023/12/07 01:49:34;;;;;;;15.30;12.30;;;;;;;;;;5117498;28;20055;-77
2023/12/07 01:52:01;;;;;;;15.15;11.88;;;;;;;;;;5099187;28;20055;-76
2023/12/07 01:54:27;;;;;;;17.33;13.57;;;;;;;;;;5082537;28;20126;-76
2023/12/07 01:56:53;;;;;;;16.60;13.32;;;;;;;;;;5117023;28;20082;-77
2023/12/07 01:59:19;;;;;;;18.23;13.35;;;;;;;;;;5099023;28;20079;-77
2023/12/07 02:01:45;;;;;;;18.15;13.23;;;;;;;;;;5118122;28;20134;-76
2023/12/07 02:04:11;;;;;;;18.00;13.18;;;;;;;;;;5099069;28;20122;-77
2023/12/07 02:06:37;;;;;;;15.55;13.82;;;;;;;;;;5098773;28;20503;-77
2023/12/07 02:09:03;;;;;;;17.90;14.80;;;;;;;;;;5099123;28;20497;-76
2023/12/07 02:11:29;;;;;;;20.23;15.32;;;;;;;;;;5117065;28;20048;-76
2023/12/07 02:13:57;;;;;;;17.27;14.57;;;;;;;;;;5099124;28;20044;-76
2023/12/07 02:16:44;;;;;;;17.92;14.63;;;;;;;;;;5116906;28;20079;-77
2023/12/07 02:19:30;;;;;;;17.60;14.15;;;;;;;;;;5098950;28;20127;-76
2023/12/07 02:21:59;;;;;;;19.13;15.27;;;;;;;;;;5032021;28;20395;-76
2023/12/07 02:24:26;;;;;;;18.75;14.70;;;;;;;;;;5098602;28;20045;-76
2023/12/07 02:26:52;;;;;;;16.75;14.27;;;;;;;;;;5081324;28;20330;-76
2023/12/07 02:29:18;;;;;;;18.33;14.52;;;;;;;;;;5099543;28;20051;-77
2023/12/07 02:31:44;;;;;;;17.83;14.48;;;;;;;;;;5116708;28;20048;-76
2023/12/07 02:34:10;;;;;;;24.45;14.65;;;;;;;;;;5081750;28;20043;-76
2023/12/07 02:36:37;;;;;;;18.52;14.90;;;;;;;;;;5098578;28;20047;-76
2023/12/07 02:39:04;;;;;;;18.55;15.07;;;;;;;;;;5098590;28;20051;-76
2023/12/07 02:41:33;;;;;;;16.55;14.25;;;;;;;;;;5116289;28;20055;-77
2023/12/07 02:43:59;;;;;;;21.77;15.48;;;;;;;;;;5097246;28;20066;-76
2023/12/07 02:46:26;;;;;;;18.15;15.05;;;;;;;;;;5097126;28;20504;-77
2023/12/07 02:48:52;;;;;;;21.63;15.27;;;;;;;;;;5097329;28;20124;-77
2023/12/07 02:51:18;;;;;;;18.38;15.18;;;;;;;;;;5097789;28;20373;-76
2023/12/07 02:53:44;;;;;;;19.27;15.95;;;;;;;;;;5098311;28;20100;-76
2023/12/07 02:56:10;;;;;;;18.77;15.57;;;;;;;;;;5097835;28;20039;-76
2023/12/07 02:58:36;;;;;;;16.77;14.27;;;;;;;;;;5064774;28;20475;-76
2023/12/07 03:01:02;;;;;;;16.77;14.45;;;;;;;;;;5081393;28;20483;-77
2023/12/07 03:03:28;;;;;;;18.45;14.57;;;;;;;;;;5115723;28;20043;-76
2023/12/07 03:05:54;;;;;;;17.15;14.82;;;;;;;;;;5098077;28;20134;-76
2023/12/07 03:08:20;;;;;;;18.08;14.93;;;;;;;;;;5097764;28;20047;-76
2023/12/07 03:10:46;;;;;;;21.45;16.23;;;;;;;;;;5080953;28;20476;-77
2023/12/07 03:13:12;;;;;;;18.48;15.05;;;;;;;;;;5115960;28;20060;-76
2023/12/07 03:15:39;;;;;;;18.65;15.88;;;;;;;;;;5097920;28;20513;-77
2023/12/07 03:18:05;;;;;;;20.38;14.95;;;;;;;;;;5097822;28;20048;-77
2023/12/07 03:20:31;;;;;;;23.20;16.77;;;;;;;;;;5097583;28;20096;-76
2023/12/07 03:22:57;;;;;;;18.02;15.32;;;;;;;;;;5097627;28;20616;-76
2023/12/07 03:25:23;;;;;;;21.95;17.27;;;;;;;;;;5097281;28;20503;-77
2023/12/07 03:27:49;;;;;;;18.08;15.35;;;;;;;;;;5115630;28;20108;-76
2023/12/07 03:30:15;;;;;;;22.33;16.77;;;;;;;;;;5080817;28;20051;-77
2023/12/07 03:32:41;;;;;;;19.20;15.95;;;;;;;;;;5115077;28;20557;-76
2023/12/07 03:35:07;;;;;;;18.55;15.20;;;;;;;;;;5115179;28;20503;-76
2023/12/07 03:37:33;;;;;;;21.60;16.40;;;;;;;;;;5114726;28;20043;-77
2023/12/07 03:40:00;;;;;;;18.85;16.02;;;;;;;;;;5115601;28;20055;-76
2023/12/07 03:42:26;;;;;;;18.95;15.90;;;;;;;;;;5080253;28;20105;-76
2023/12/07 03:44:52;;;;;;;21.90;16.23;;;;;;;;;;5097593;28;20086;-77
2023/12/07 03:47:18;;;;;;;20.27;15.55;;;;;;;;;;5115158;28;20055;-76
2023/12/07 03:49:44;;;;;;;22.35;18.40;;;;;;;;;;5080459;28;20441;-76
2023/12/07 03:52:10;;;;;;;20.65;16.77;;;;;;;;;;5080525;28;20047;-76
2023/12/07 03:54:37;;;;;;;21.30;16.27;;;;;;;;;;5080704;28;20063;-76
2023/12/07 03:57:04;;;;;;;21.48;17.60;;;;;;;;;;5096357;28;20092;-76
2023/12/07 03:59:30;;;;;;;24.48;18.23;;;;;;;;;;5115029;28;20089;-76
2023/12/07 04:01:56;;;;;;;25.08;18.48;;;;;;;;;;5115034;28;20097;-76
2023/12/07 04:04:22;;;;;;;25.20;17.63;;;;;;;;;;5096261;28;20035;-76
2023/12/07 04:06:48;;;;;;;21.80;17.40;;;;;;;;;;5114813;28;20483;-76
2023/12/07 04:09:14;;;;;;;21.63;17.23;;;;;;;;;;5097147;28;20043;-76
2023/12/07 04:11:41;;;;;;;22.60;17.27;;;;;;;;;;5080135;28;20126;-76
2023/12/07 04:14:07;;;;;;;23.00;17.65;;;;;;;;;;5096772;28;20539;-76
2023/12/07 04:16:33;;;;;;;21.40;16.55;;;;;;;;;;5115202;28;20381;-76
2023/12/07 04:18:59;;;;;;;23.60;17.63;;;;;;;;;;5079907;28;20055;-76
2023/12/07 04:21:25;;;;;;;26.92;16.83;;;;;;;;;;5079811;28;20502;-76
2023/12/07 04:23:51;;;;;;;19.30;15.57;;;;;;;;;;5114414;28;20054;-76
2023/12/07 04:26:17;;;;;;;24.00;16.88;;;;;;;;;;5096048;28;20052;-76
2023/12/07 04:28:43;;;;;;;23.85;16.90;;;;;;;;;;5079843;28;20100;-76
2023/12/07 04:31:09;;;;;;;30.42;17.75;;;;;;;;;;5096453;28;20134;-77
2023/12/07 04:33:36;;;;;;;19.42;16.27;;;;;;;;;;5114762;28;20083;-76
2023/12/07 04:36:04;;;;;;;21.00;16.52;;;;;;;;;;5096428;28;20130;-76
2023/12/07 04:38:30;;;;;;;21.48;16.10;;;;;;;;;;5096421;28;20093;-76
2023/12/07 04:40:56;;;;;;;21.80;16.40;;;;;;;;;;5114211;28;20043;-77
2023/12/07 04:43:23;;;;;;;18.92;15.50;;;;;;;;;;5114341;28;20054;-76
2023/12/07 04:45:49;;;;;;;19.10;15.70;;;;;;;;;;5096318;28;20063;-76
2023/12/07 04:48:15;;;;;;;21.30;15.73;;;;;;;;;;5096166;28;20503;-77
2023/12/07 04:50:41;;;;;;;18.90;16.38;;;;;;;;;;5096280;28;20039;-77
2023/12/07 04:53:07;;;;;;;18.67;15.25;;;;;;;;;;5114175;28;20039;-77
2023/12/07 04:55:33;;;;;;;20.48;15.50;;;;;;;;;;5079044;28;20048;-76
2023/12/07 04:57:59;;;;;;;17.95;15.18;;;;;;;;;;5114057;28;20127;-76
2023/12/07 05:00:25;;;;;;;19.45;14.13;;;;;;;;;;5095982;28;20044;-77
2023/12/07 05:02:51;;;;;;;21.88;15.30;;;;;;;;;;5096009;28;20039;-76
2023/12/07 05:05:17;;;;;;;20.63;15.70;;;;;;;;;;5096103;28;20079;-77
2023/12/07 05:07:43;;;;;;;20.25;15.43;;;;;;;;;;5095391;28;20055;-77
2023/12/07 05:10:09;;;;;;;18.60;14.27;;;;;;;;;;5096017;28;20035;-76
2023/12/07 05:12:35;;;;;;;20.90;15.20;;;;;;;;;;5096021;28;20054;-76
2023/12/07 05:15:04;;;;;;;19.67;15.48;;;;;;;;;;5095709;28;20052;-76
2023/12/07 05:17:33;;;;;;;21.35;16.35;;;;;;;;;;5113714;28;20083;-76
2023/12/07 05:19:59;;;;;;;21.67;15.90;;;;;;;;;;5112778;28;20047;-77
2023/12/07 05:22:25;;;;;;;21.58;15.55;;;;;;;;;;5094976;28;20048;-77
2023/12/07 05:24:51;;;;;;;23.02;16.92;;;;;;;;;;5095757;28;20044;-77
2023/12/07 05:27:17;;;;;;;20.00;16.88;;;;;;;;;;5078728;28;20051;-76
2023/12/07 05:29:43;;;;;;;21.27;16.15;;;;;;;;;;5113640;28;20043;-76
2023/12/07 05:32:09;;;;;;;22.95;17.45;;;;;;;;;;5095868;28;20486;-76
2023/12/07 05:34:35;;;;;;;19.98;16.90;;;;;;;;;;5095252;28;20126;-77
2023/12/07 05:37:02;;;;;;;23.30;17.15;;;;;;;;;;5078805;28;20505;-76
2023/12/07 05:39:28;;;;;;;21.90;16.80;;;;;;;;;;5113747;28;20050;-76
2023/12/07 05:41:54;;;;;;;23.98;17.23;;;;;;;;;;5095170;28;20056;-76
2023/12/07 05:44:22;;;;;;;24.52;18.00;;;;;;;;;;5078526;28;20112;-77
2023/12/07 05:46:48;;;;;;;25.10;18.65;;;;;;;;;;5095120;28;20488;-76
2023/12/07 05:49:14;;;;;;;23.40;17.95;;;;;;;;;;5095538;28;20051;-77
2023/12/07 05:51:40;;;;;;;23.48;17.83;;;;;;;;;;5095675;28;20056;-76
2023/12/07 05:54:06;;;;;;;21.35;16.25;;;;;;;;;;5095641;28;20185;-77
2023/12/07 05:56:32;;;;;;;24.15;19.73;;;;;;;;;;5095251;28;20047;-77
2023/12/07 05:58:58;;;;;;;27.60;19.63;;;;;;;;;;5095642;28;20051;-76
2023/12/07 06:01:25;;;;;;;23.15;19.05;;;;;;;;;;5113700;28;20048;-77
2023/12/07 06:03:51;;;;;;;26.15;20.13;;;;;;;;;;5095732;28;20132;-77
2023/12/07 06:06:17;;;;;;;24.25;18.92;;;;;;;;;;5095079;28;20040;-76
2023/12/07 06:08:44;;;;;;;26.15;19.52;;;;;;;;;;5078488;28;20040;-76
2023/12/07 06:11:10;;;;;;;29.98;20.27;;;;;;;;;;5095757;28;20059;-77
2023/12/07 06:13:36;;;;;;;25.75;19.33;;;;;;;;;;5095356;28;20532;-76
2023/12/07 06:16:02;;;;;;;28.85;21.15;;;;;;;;;;5095370;28;20052;-76
2023/12/07 06:18:29;;;;;;;30.02;20.52;;;;;;;;;;5096603;28;20402;-76
2023/12/07 06:20:55;;;;;;;25.05;19.20;;;;;;;;;;5117289;28;20070;-76
2023/12/07 06:23:21;;;;;;;26.73;20.33;;;;;;;;;;5081798;28;20087;-76
2023/12/07 06:25:47;;;;;;;25.85;19.85;;;;;;;;;;5082127;28;20438;-76
2023/12/07 06:28:13;;;;;;;23.58;19.05;;;;;;;;;;5116828;28;20108;-77
2023/12/07 06:30:39;;;;;;;28.73;21.42;;;;;;;;;;5116830;28;20054;-76
2023/12/07 06:33:05;;;;;;;30.05;21.05;;;;;;;;;;5117306;28;20044;-76
2023/12/07 06:35:31;;;;;;;25.50;19.45;;;;;;;;;;5116830;28;20048;-76
2023/12/07 06:37:57;;;;;;;24.67;19.35;;;;;;;;;;5116667;28;20053;-76
2023/12/07 06:40:23;;;;;;;27.70;21.02;;;;;;;;;;5098399;28;20047;-77
2023/12/07 06:42:49;;;;;;;30.25;21.30;;;;;;;;;;5095489;28;20062;-76
2023/12/07 06:45:16;;;;;;;28.73;22.33;;;;;;;;;;5098342;28;20483;-76
2023/12/07 06:47:42;;;;;;;23.90;19.52;;;;;;;;;;5116560;28;20047;-76
2023/12/07 06:50:09;;;;;;;27.85;19.88;;;;;;;;;;5116412;28;20097;-76
2023/12/07 06:52:36;;;;;;;24.25;19.85;;;;;;;;;;5116167;28;20051;-76
2023/12/07 06:55:02;;;;;;;24.80;19.67;;;;;;;;;;5098014;28;20534;-77
2023/12/07 06:57:28;;;;;;;24.42;20.45;;;;;;;;;;5098478;28;20491;-76
2023/12/07 06:59:54;;;;;;;27.73;20.83;;;;;;;;;;5116294;28;20044;-76
2023/12/07 07:02:20;;;;;;;25.15;20.38;;;;;;;;;;5116248;28;20043;-76
2023/12/07 07:04:48;;;;;;;29.10;21.75;;;;;;;;;;5116358;28;20079;-76
2023/12/07 07:07:15;;;;;;;30.58;22.42;;;;;;;;;;5098369;28;20047;-76
2023/12/07 07:09:41;;;;;;;28.05;21.55;;;;;;;;;;5081723;28;20070;-76
2023/12/07 07:12:07;;;;;;;23.95;19.42;;;;;;;;;;5098046;28;20040;-77
2023/12/07 07:14:34;;;;;;;31.80;22.08;;;;;;;;;;5098260;28;20051;-77
2023/12/07 07:17:00;;;;;;;27.85;21.67;;;;;;;;;;5098827;28;20055;-76
2023/12/07 07:19:26;;;;;;;28.42;20.73;;;;;;;;;;5115950;28;20095;-76
2023/12/07 07:21:52;;;;;;;29.20;21.70;;;;;;;;;;5097464;28;20099;-77
2023/12/07 07:24:18;;;;;;;27.15;21.55;;;;;;;;;;5115579;28;20047;-76
2023/12/07 07:26:44;;;;;;;26.38;21.20;;;;;;;;;;5096827;28;20043;-76
2023/12/07 07:29:10;;;;;;;24.20;20.55;;;;;;;;;;5080555;28;20074;-76
2023/12/07 07:31:36;;;;;;;27.02;20.52;;;;;;;;;;5097777;28;20044;-76
2023/12/07 07:34:02;;;;;;;28.58;21.65;;;;;;;;;;5097294;28;20036;-76
2023/12/07 07:36:29;;;;;;;26.65;20.40;;;;;;;;;;5097708;28;20047;-76
2023/12/07 07:38:55;;;;;;;25.92;21.70;;;;;;;;;;5097538;28;20058;-77
2023/12/07 07:41:22;;;;;;;24.75;20.60;;;;;;;;;;5115469;28;20509;-77
2023/12/07 07:43:48;;;;;;;26.88;20.05;;;;;;;;;;5097649;28;20059;-76
2023/12/07 07:46:14;;;;;;;26.55;20.55;;;;;;;;;;5080788;28;20081;-75
2023/12/07 07:48:40;;;;;;;26.70;21.30;;;;;;;;;;5115331;28;20071;-76
2023/12/07 07:51:06;;;;;;;30.45;22.25;;;;;;;;;;5097415;28;20046;-76
2023/12/07 07:53:33;;;;;;;33.90;23.27;;;;;;;;;;5080645;28;20048;-76
2023/12/07 07:55:59;;;;;;;32.00;24.48;;;;;;;;;;5096935;28;20376;-76
2023/12/07 07:58:25;;;;;;;29.23;23.13;;;;;;;;;;5080442;28;20043;-76
2023/12/07 08:00:52;;;;;;;36.30;24.73;;;;;;;;;;5080425;28;20439;-76
2023/12/07 08:03:18;;;;;;;33.45;24.92;;;;;;;;;;5097077;28;20492;-76
2023/12/07 08:05:44;;;;;;;33.95;24.60;;;;;;;;;;5115169;28;20051;-76
2023/12/07 08:08:11;;;;;;;32.88;25.00;;;;;;;;;;5097073;28;20058;-76
2023/12/07 08:10:39;;;;;;;30.83;24.63;;;;;;;;;;5080134;28;20085;-77
2023/12/07 08:13:07;;;;;;;32.50;24.88;;;;;;;;;;5063651;28;20157;-77
2023/12/07 08:15:33;;;;;;;34.58;24.40;;;;;;;;;;5096880;28;20051;-76
2023/12/07 08:17:59;;;;;;;34.97;25.25;;;;;;;;;;5096712;28;20422;-76
2023/12/07 08:20:26;;;;;;;31.60;23.92;;;;;;;;;;5114803;28;20132;-76
2023/12/07 08:22:52;;;;;;;33.40;24.95;;;;;;;;;;5114635;28;20047;-76
2023/12/07 08:25:18;;;;;;;33.20;25.30;;;;;;;;;;5079399;28;20051;-77
2023/12/07 08:27:45;;;;;;;32.90;25.13;;;;;;;;;;5079733;28;20395;-77
2023/12/07 08:30:12;;;;;;;37.53;27.02;;;;;;;;;;5079647;28;20138;-76
2023/12/07 08:32:38;;;;;;;54.45;25.85;;;;;;;;;;5114798;28;20051;-77
2023/12/07 08:35:08;;;;;;;55.60;24.33;;;;;;;;;;5079865;28;20052;-77
2023/12/07 08:37:34;;;;;;;85.43;26.58;;;;;;;;;;5114247;28;20050;-77
2023/12/07 08:40:00;;;;;;;79.20;25.70;;;;;;;;;;5096324;28;20043;-77
2023/12/07 08:42:26;;;;;;;42.38;23.55;;;;;;;;;;5091698;28;20052;-79
2023/12/07 08:44:53;;;;;;;65.22;25.38;;;;;;;;;;5076017;28;20048;-77
2023/12/07 08:47:19;;;;;;;46.78;23.15;;;;;;;;;;5093571;28;20130;-78
2023/12/07 08:49:45;;;;;;;67.57;20.65;;;;;;;;;;5093189;28;20051;-77
2023/12/07 08:52:11;;;;;;;73.88;21.35;;;;;;;;;;5092902;28;20048;-76
2023/12/07 08:54:37;;;;;;;102.43;22.80;;;;;;;;;;5092896;28;20064;-76
2023/12/07 08:57:03;;;;;;;62.33;20.92;;;;;;;;;;5092414;28;20051;-77
2023/12/07 08:59:32;;;;;;;71.35;19.52;;;;;;;;;;5076045;28;20087;-77
2023/12/07 09:01:59;;;;;;;71.70;20.23;;;;;;;;;;5091113;28;20079;-77
2023/12/07 09:04:25;;;;;;;73.15;20.10;;;;;;;;;;5091873;28;20088;-77
2023/12/07 09:06:51;;;;;;;56.08;20.10;;;;;;;;;;5092504;28;20051;-76
2023/12/07 09:09:17;;;;;;;52.80;20.48;;;;;;;;;;5075909;28;20055;-77
2023/12/07 09:11:43;;;;;;;69.80;17.88;;;;;;;;;;5092720;28;20044;-77
2023/12/07 09:14:09;;;;;;;123.70;21.55;;;;;;;;;;5092457;28;20036;-76
2023/12/07 09:16:35;;;;;;;83.65;22.42;;;;;;;;;;5092647;28;20439;-76
2023/12/07 09:19:01;;;;;;;302.63;36.10;;;;;;;;;;5093564;28;20052;-79
2023/12/07 09:21:27;;;;;;;261.63;33.42;;;;;;;;;;5092371;28;20484;-77
2023/12/07 09:23:54;;;;;;;165.40;29.02;;;;;;;;;;5092878;28;20395;-76
2023/12/07 09:26:20;;;;;;;173.93;27.55;;;;;;;;;;5092346;28;20048;-77
2023/12/07 09:28:47;;;;;;;142.73;25.98;;;;;;;;;;5092398;28;20044;-76
2023/12/07 09:31:13;;;;;;;79.82;24.35;;;;;;;;;;5092514;28;20063;-77
2023/12/07 09:33:39;;;;;;;105.60;24.90;;;;;;;;;;5059071;28;20130;-77
2023/12/07 09:36:08;;;;;;;87.88;25.33;;;;;;;;;;5092452;28;20048;-77
2023/12/07 09:38:36;;;;;;;116.65;24.80;;;;;;;;;;5075538;28;20101;-77
2023/12/07 09:41:02;;;;;;;76.30;24.63;;;;;;;;;;5093981;28;20059;-77
2023/12/07 09:43:29;;;;;;;84.43;24.02;;;;;;;;;;5091641;28;20415;-77
2023/12/07 09:45:55;;;;;;;98.05;25.38;;;;;;;;;;5091908;28;20503;-77
2023/12/07 09:48:21;;;;;;;63.53;22.85;;;;;;;;;;5091982;28;20044;-77
2023/12/07 09:50:48;;;;;;;42.20;23.88;;;;;;;;;;5075450;28;20493;-77
2023/12/07 09:53:14;;;;;;;125.30;25.60;;;;;;;;;;5061047;28;20459;-76
2023/12/07 09:55:40;;;;;;;87.18;24.73;;;;;;;;;;5095791;28;20121;-77
2023/12/07 09:58:07;;;;;;;63.88;24.90;;;;;;;;;;5095887;28;20051;-76
2023/12/07 10:00:33;;;;;;;67.40;24.73;;;;;;;;;;5096103;28;20077;-76
2023/12/07 10:02:59;;;;;;;62.40;23.90;;;;;;;;;;5095976;28;20076;-76
2023/12/07 10:05:25;;;;;;;60.38;23.52;;;;;;;;;;5096976;28;20048;-77
2023/12/07 10:07:51;;;;;;;56.13;23.10;;;;;;;;;;5079109;28;20048;-76
2023/12/07 10:10:18;;;;;;;92.70;24.85;;;;;;;;;;5096900;28;20133;-76
2023/12/07 10:12:48;;;;;;;51.25;25.77;;;;;;;;;;5095482;28;20040;-76
2023/12/07 10:15:16;;;;;;;47.47;24.13;;;;;;;;;;5096889;28;20044;-76
2023/12/07 10:17:48;;;;;;;70.60;22.25;;;;;;;;;;5096770;28;20044;-76
2023/12/07 10:20:15;;;;;;;93.53;26.70;;;;;;;;;;5079310;28;20048;-76
2023/12/07 10:22:41;;;;;;;93.80;26.23;;;;;;;;;;5096615;28;20070;-76
2023/12/07 10:25:08;;;;;;;70.97;25.23;;;;;;;;;;5097418;28;20118;-76
2023/12/07 10:27:35;;;;;;;54.70;24.70;;;;;;;;;;5095222;28;20492;-77
2023/12/07 10:30:01;;;;;;;71.38;25.88;;;;;;;;;;5079044;28;20055;-76
2023/12/07 10:32:27;;;;;;;151.88;28.80;;;;;;;;;;5095561;28;20052;-77
2023/12/07 10:34:56;;;;;;;105.90;25.33;;;;;;;;;;5095663;28;20193;-76
2023/12/07 10:37:22;;;;;;;183.15;28.58;;;;;;;;;;5062178;28;20044;-77
2023/12/07 10:39:49;;;;;;;94.25;25.45;;;;;;;;;;5095447;28;20129;-77
2023/12/07 10:42:16;;;;;;;88.57;24.45;;;;;;;;;;5094761;28;20060;-77
2023/12/07 10:44:43;;;;;;;55.20;25.10;;;;;;;;;;5095872;28;20066;-77
2023/12/07 10:47:12;;;;;;;134.98;29.13;;;;;;;;;;5095298;28;20043;-77
2023/12/07 10:49:41;;;;;;;95.63;26.40;;;;;;;;;;5095253;28;20044;-76
2023/12/07 10:52:07;;;;;;;38.97;23.40;;;;;;;;;;5095262;28;20392;-76
2023/12/07 10:54:52;;;;;;;138.45;28.92;;;;;;;;;;5096284;28;20048;-77
2023/12/07 10:57:20;;;;;;;138.73;26.15;;;;;;;;;;5094838;28;20051;-76
2023/12/07 10:59:48;;;;;;;67.80;23.30;;;;;;;;;;5096094;28;20052;-77
2023/12/07 11:02:14;;;;;;;139.07;27.20;;;;;;;;;;5095042;28;20048;-76
2023/12/07 11:04:41;;;;;;;104.90;25.50;;;;;;;;;;5093643;28;20126;-77
2023/12/07 11:07:11;;;;;;;59.47;24.05;;;;;;;;;;5095399;28;20108;-77
2023/12/07 11:09:42;;;;;;;89.65;26.00;;;;;;;;;;5078121;28;20104;-77
2023/12/07 11:12:11;;;;;;;93.80;25.23;;;;;;;;;;5096295;28;20449;-77
2023/12/07 11:14:38;;;;;;;105.43;26.27;;;;;;;;;;5094756;28;20151;-76
2023/12/07 11:17:06;;;;;;;85.05;27.27;;;;;;;;;;5095783;28;20083;-76
2023/12/07 11:19:32;;;;;;;77.65;26.35;;;;;;;;;;5094718;28;20048;-76
2023/12/07 11:22:09;;;;;;;77.22;27.23;;;;;;;;;;5094711;28;20048;-76
2023/12/07 11:24:36;;;;;;;52.35;27.20;;;;;;;;;;5094381;28;20170;-76
2023/12/07 11:27:02;;;;;;;139.63;33.63;;;;;;;;;;5093977;28;20051;-76
2023/12/07 11:29:32;;;;;;;80.90;29.27;;;;;;;;;;5094229;28;20508;-76
2023/12/07 11:32:03;;;;;;;71.28;29.10;;;;;;;;;;5094581;28;20055;-77
2023/12/07 11:34:42;;;;;;;56.28;26.70;;;;;;;;;;5095414;28;20083;-77
2023/12/07 11:37:09;;;;;;;75.63;27.88;;;;;;;;;;5095322;28;20047;-77
2023/12/07 11:39:36;;;;;;;70.68;29.75;;;;;;;;;;5094321;28;20084;-76
2023/12/07 11:42:08;;;;;;;94.30;30.48;;;;;;;;;;5094000;28;20052;-76
2023/12/07 11:44:37;;;;;;;98.95;30.60;;;;;;;;;;5094053;28;20052;-76
2023/12/07 11:47:04;;;;;;;93.70;30.60;;;;;;;;;;5077276;28;20373;-76
2023/12/07 11:49:31;;;;;;;108.72;34.72;;;;;;;;;;5094154;28;20073;-76
2023/12/07 11:51:57;;;;;;;156.15;39.35;;;;;;;;;;5077283;28;20058;-77
2023/12/07 11:54:23;;;;;;;73.45;31.42;;;;;;;;;;5060609;28;20048;-77
2023/12/07 11:56:56;;;;;;;111.22;32.60;;;;;;;;;;5076692;28;20040;-76
2023/12/07 11:59:25;;;;;;;91.28;33.08;;;;;;;;;;5077168;28;20051;-76
2023/12/07 12:01:52;;;;;;;127.63;35.20;;;;;;;;;;5093622;28;20050;-76
2023/12/07 12:04:18;;;;;;;91.20;33.85;;;;;;;;;;5093556;28;20044;-77
2023/12/07 12:06:45;;;;;;;73.43;32.95;;;;;;;;;;5077193;28;20483;-76
2023/12/07 12:09:17;;;;;;;78.43;35.05;;;;;;;;;;5093767;28;20079;-76
2023/12/07 12:11:46;;;;;;;72.63;32.58;;;;;;;;;;5094665;28;20047;-76
2023/12/07 12:14:14;;;;;;;105.00;31.23;;;;;;;;;;5094652;28;20087;-77
2023/12/07 12:16:40;;;;;;;82.47;33.35;;;;;;;;;;5093592;28;20093;-76
2023/12/07 12:19:06;;;;;;;71.55;33.25;;;;;;;;;;5076959;28;20369;-76
2023/12/07 12:21:39;;;;;;;73.93;34.30;;;;;;;;;;5093308;28;20086;-76
2023/12/07 12:24:08;;;;;;;80.45;34.47;;;;;;;;;;5076599;28;20044;-77
2023/12/07 12:26:35;;;;;;;81.30;36.17;;;;;;;;;;5076560;28;20044;-76
2023/12/07 12:29:02;;;;;;;84.82;35.95;;;;;;;;;;5093421;28;20044;-76
2023/12/07 12:31:29;;;;;;;85.63;36.30;;;;;;;;;;5093360;28;20075;-77
2023/12/07 12:33:55;;;;;;;91.05;38.55;;;;;;;;;;5094494;28;20040;-76
2023/12/07 12:36:23;;;;;;;89.55;34.72;;;;;;;;;;5076543;28;20043;-76
2023/12/07 12:38:52;;;;;;;84.30;35.30;;;;;;;;;;5076719;28;20048;-77
2023/12/07 12:41:22;;;;;;;82.88;31.75;;;;;;;;;;5094028;28;20044;-77
2023/12/07 12:43:50;;;;;;;86.65;35.47;;;;;;;;;;5096354;28;20047;-77
2023/12/07 12:46:16;;;;;;;85.25;38.67;;;;;;;;;;5096282;28;20047;-77
2023/12/07 12:48:55;;;;;;;92.05;38.65;;;;;;;;;;5096675;28;20126;-77
2023/12/07 12:51:24;;;;;;;94.40;39.47;;;;;;;;;;5096443;28;20039;-77
2023/12/07 12:53:51;;;;;;;120.25;43.80;;;;;;;;;;5096385;28;20123;-77
2023/12/07 12:56:18;;;;;;;99.43;40.53;;;;;;;;;;5095987;28;20043;-77
2023/12/07 12:58:44;;;;;;;92.45;38.75;;;;;;;;;;5096402;28;20055;-76
2023/12/07 13:01:11;;;;;;;86.72;33.40;;;;;;;;;;5079567;28;20051;-77
2023/12/07 13:03:37;;;;;;;87.95;35.95;;;;;;;;;;5096291;28;20040;-76
2023/12/07 13:06:03;;;;;;;101.20;41.55;;;;;;;;;;5096666;28;20082;-77
2023/12/07 13:08:30;;;;;;;92.25;39.58;;;;;;;;;;5114218;28;20047;-77
2023/12/07 13:10:56;;;;;;;103.90;40.67;;;;;;;;;;5079443;28;20051;-77
2023/12/07 13:13:22;;;;;;;98.88;41.47;;;;;;;;;;5096203;28;20036;-77
2023/12/07 13:15:48;;;;;;;100.88;42.53;;;;;;;;;;5079398;28;20047;-77
2023/12/07 13:18:14;;;;;;;89.65;40.35;;;;;;;;;;5079392;28;20104;-77
2023/12/07 13:20:40;;;;;;;92.90;39.42;;;;;;;;;;5096144;28;20479;-77
2023/12/07 13:23:06;;;;;;;95.60;39.47;;;;;;;;;;5113979;28;20043;-77
2023/12/07 13:25:32;;;;;;;77.65;33.08;;;;;;;;;;5078947;28;20054;-77
2023/12/07 13:27:58;;;;;;;91.47;39.35;;;;;;;;;;5098041;28;20100;-77
2023/12/07 13:30:29;;;;;;;91.28;38.63;;;;;;;;;;5100284;28;20044;-77
2023/12/07 13:32:55;;;;;;;88.47;38.10;;;;;;;;;;5100443;28;20126;-76
2023/12/07 13:35:22;;;;;;;94.18;41.10;;;;;;;;;;5118160;28;20081;-76
2023/12/07 13:37:48;;;;;;;83.13;39.30;;;;;;;;;;5100081;28;20118;-77
2023/12/07 13:40:15;;;;;;;85.25;40.53;;;;;;;;;;5118039;28;20441;-77
2023/12/07 13:42:41;;;;;;;93.35;40.13;;;;;;;;;;5099662;28;20060;-77
2023/12/07 13:45:08;;;;;;;87.57;39.85;;;;;;;;;;5099830;28;20487;-77
2023/12/07 13:47:37;;;;;;;88.35;42.60;;;;;;;;;;5118414;28;20482;-77
2023/12/07 13:50:04;;;;;;;89.78;42.35;;;;;;;;;;5100478;28;20055;-76
2023/12/07 13:52:31;;;;;;;83.10;38.78;;;;;;;;;;5099560;28;20054;-77
2023/12/07 13:54:57;;;;;;;86.18;40.10;;;;;;;;;;5099395;28;20043;-76
2023/12/07 13:57:24;;;;;;;88.45;40.67;;;;;;;;;;5117446;28;20388;-76
2023/12/07 13:59:50;;;;;;;79.47;36.50;;;;;;;;;;5099383;28;20079;-77
2023/12/07 14:02:17;;;;;;;89.07;40.78;;;;;;;;;;5099703;28;20058;-76
2023/12/07 14:04:43;;;;;;;79.80;40.33;;;;;;;;;;5099014;28;20065;-77
2023/12/07 14:07:10;;;;;;;77.38;37.65;;;;;;;;;;5116307;28;20561;-77
2023/12/07 14:09:37;;;;;;;82.78;40.63;;;;;;;;;;5098319;28;20510;-78
2023/12/07 14:12:03;;;;;;;82.70;39.63;;;;;;;;;;5099276;28;20083;-77
2023/12/07 14:14:29;;;;;;;89.72;39.35;;;;;;;;;;5082237;28;20082;-77